| Id | Lat | Lon | Speed | Time |
| 7567670 | 42921247 | 195406732 | 2 | 1777914700 |
| 7567669 | 42921309 | 195406645 | 6 | 1777914700 |
| 7567668 | 42920881 | 195406570 | 10 | 1777914700 |
| 7567667 | 42920411 | 195406387 | 10 | 1777914700 |
| 7567666 | 42919968 | 195406224 | 6 | 1777914700 |
| 7567665 | 42919629 | 195406018 | 6 | 1777914600 |
| 7567664 | 42919169 | 195405826 | 7 | 1777914600 |
| 7567663 | 42918773 | 195405551 | 6 | 1777914600 |
| 7567662 | 42918537 | 195405221 | 10 | 1777914600 |
| 7567661 | 42918608 | 195404666 | 8 | 1777914600 |
| 7567660 | 42918734 | 195404082 | 6 | 1777914600 |
| 7567659 | 42918863 | 195403489 | 14 | 1777914500 |
| 7567658 | 42918888 | 195402774 | 10 | 1777914500 |
| 7567657 | 42918704 | 195402564 | 7 | 1777914500 |
| 7567656 | 42918407 | 195402713 | 6 | 1777914500 |
| 7567655 | 42918054 | 195402899 | 8 | 1777914500 |
| 7567654 | 42917679 | 195403061 | 7 | 1777914500 |
| 7567653 | 42917296 | 195403196 | 6 | 1777914400 |
| 7567652 | 42916917 | 195403244 | 9 | 1777914400 |
| 7567651 | 42916544 | 195403341 | 8 | 1777914400 |
| 7567650 | 42916253 | 195403459 | 7 | 1777914400 |
| 7567649 | 42915868 | 195403373 | 7 | 1777914400 |
| 7567648 | 42915519 | 195403370 | 3 | 1777914400 |
| 7567647 | 42915438 | 195403722 | 7 | 1777914400 |
| 7567646 | 42915333 | 195404229 | 7 | 1777914300 |
| 7567645 | 42915233 | 195404693 | 7 | 1777914300 |
| 7567644 | 42915141 | 195405210 | 7 | 1777914300 |
| 7567643 | 42915102 | 195405743 | 6 | 1777914300 |
| 7567642 | 42915185 | 195406187 | 7 | 1777914300 |
| 7567641 | 42915362 | 195406642 | 6 | 1777914300 |
| 7567640 | 42915505 | 195407068 | 7 | 1777914200 |
| 7567639 | 42915686 | 195407549 | 7 | 1777914200 |
| 7567638 | 42915839 | 195408001 | 6 | 1777914200 |
| 7567637 | 42916045 | 195408482 | 9 | 1777914200 |
| 7567636 | 42916342 | 195408656 | 6 | 1777914200 |
| 7567635 | 42916676 | 195408868 | 7 | 1777914200 |
| 7567634 | 42917041 | 195409049 | 7 | 1777914200 |
| 7567633 | 42917421 | 195409279 | 8 | 1777914100 |
| 7567632 | 42917660 | 195409507 | 8 | 1777914100 |
| 7567631 | 42917945 | 195409671 | 6 | 1777914100 |
| 7567630 | 42918257 | 195409875 | 7 | 1777914100 |
| 7567629 | 42918600 | 195410094 | 7 | 1777914100 |
| 7567628 | 42918989 | 195410383 | 7 | 1777914100 |
| 7567627 | 42919268 | 195410580 | 9 | 1777914000 |
| 7567626 | 42919515 | 195410663 | 12 | 1777914000 |
| 7567625 | 42919903 | 195410787 | 7 | 1777914000 |
| 7567624 | 42920210 | 195410948 | 7 | 1777914000 |
| 7567623 | 42920548 | 195411151 | 6 | 1777914000 |
| 7567622 | 42920848 | 195411345 | 7 | 1777914000 |
| 7567621 | 42921216 | 195411588 | 9 | 1777914000 |